Time;durP1;ratioP1;P1;durP2;ratioP2;P2;SDS_P1;SDS_P2;PMS_P1;PMS_P2;Temp;Humidity;BMP_temperature;BMP_pressure;BME280_temperature;BME280_humidity;BME280_pressure;Samples;Min_cycle;Max_cycle;Signal;HPM_P1;HPM_P2
2023/12/23 00:02:12;;;;;;;;;;;;;;;25.92;38.29;94109.44;5030463;28;7008;-65
2023/12/23 00:04:40;;;;;;;;;;;;;;;25.89;38.73;94099.44;5030146;28;7215;-65
2023/12/23 00:07:12;;;;;;;;;;;;;;;25.92;39.05;94105.94;5028490;28;9249;-65
2023/12/23 00:09:38;;;;;;;;;;;;;;;25.90;38.94;94109.19;5029561;28;9179;-65
2023/12/23 00:12:08;;;;;;;;;;;;;;;25.93;38.67;94097.13;5020549;28;7098;-65
2023/12/23 00:14:37;;;;;;;;;;;;;;;25.90;39.06;94095.41;5031725;28;9098;-65
2023/12/23 00:17:03;;;;;;;;;;;;;;;25.88;39.01;94100.69;5018811;28;9281;-65
2023/12/23 00:19:30;;;;;;;;;;;;;;;25.90;39.14;94103.69;5025970;28;7248;-65
2023/12/23 00:21:59;;;;;;;;;;;;;;;25.88;38.32;94091.72;5032966;28;7234;-65
2023/12/23 00:24:31;;;;;;;;;;;;;;;25.91;38.33;94088.66;5024214;28;6993;-66
2023/12/23 00:26:57;;;;;;;;;;;;;;;25.93;38.30;94090.88;5035286;28;6975;-65
2023/12/23 00:29:27;;;;;;;;;;;;;;;25.91;38.19;94096.91;5023662;28;7410;-65
2023/12/23 00:31:59;;;;;;;;;;;;;;;25.92;38.79;94086.66;5032964;28;7882;-65
2023/12/23 00:34:25;;;;;;;;;;;;;;;25.95;38.34;94083.59;5028528;28;8692;-65
2023/12/23 00:36:51;;;;;;;;;;;;;;;25.94;38.42;94101.41;5044699;28;7810;-65
2023/12/23 00:39:18;;;;;;;;;;;;;;;25.94;38.60;94086.88;5016562;28;7239;-65
2023/12/23 00:41:44;;;;;;;;;;;;;;;25.93;38.52;94097.13;5031054;28;7072;-65
2023/12/23 00:44:17;;;;;;;;;;;;;;;25.96;38.09;94085.09;5037099;28;9182;-65
2023/12/23 00:46:45;;;;;;;;;;;;;;;25.94;37.94;94101.41;5030872;28;8740;-65
2023/12/23 00:49:11;;;;;;;;;;;;;;;25.92;38.25;94101.19;5016353;28;7572;-65
2023/12/23 00:51:39;;;;;;;;;;;;;;;25.90;38.79;94111.22;5038203;28;9099;-65
2023/12/23 00:54:07;;;;;;;;;;;;;;;25.91;38.27;94099.66;5022763;28;7197;-65
2023/12/23 00:56:37;;;;;;;;;;;;;;;25.93;38.17;94116.44;5040828;28;8763;-55
2023/12/23 00:59:07;;;;;;;;;;;;;;;25.93;38.08;94124.69;5030893;28;7242;-55
2023/12/23 01:01:42;;;;;;;;;;;;;;;25.92;38.61;94123.22;5033156;28;7142;-55
2023/12/23 01:04:09;;;;;;;;;;;;;;;25.92;38.04;94134.25;5034070;28;7303;-55
2023/12/23 01:06:42;;;;;;;;;;;;;;;25.92;38.61;94128.72;5013144;28;7191;-55
2023/12/23 01:09:08;;;;;;;;;;;;;;;25.89;37.84;94135.28;5030609;28;7186;-55
2023/12/23 01:11:40;;;;;;;;;;;;;;;25.92;37.72;94117.72;5040535;28;7232;-55
2023/12/23 01:14:08;;;;;;;;;;;;;;;25.94;38.03;94133.72;5026009;28;7157;-55
2023/12/23 01:16:46;;;;;;;;;;;;;;;25.94;38.33;94136.47;5023980;28;6993;-55
2023/12/23 01:19:49;;;;;;;;;;;;;;;25.94;37.93;94139.97;5024111;28;6969;-55
2023/12/23 01:22:27;;;;;;;;;;;;;;;25.91;38.68;94146.50;4956039;28;7406;-55
2023/12/23 01:25:08;;;;;;;;;;;;;;;25.89;38.26;94154.56;4967188;28;9109;-55
2023/12/23 01:27:34;;;;;;;;;;;;;;;25.89;37.86;94149.03;4972425;28;9154;-55
2023/12/23 01:30:00;;;;;;;;;;;;;;;25.91;38.52;94157.53;4970095;28;7234;-55
2023/12/23 01:32:36;;;;;;;;;;;;;;;25.85;37.90;94173.38;4953829;28;7137;-55
2023/12/23 01:35:19;;;;;;;;;;;;;;;25.89;38.50;94171.09;4959494;28;9266;-55
2023/12/23 01:37:46;;;;;;;;;;;;;;;25.92;37.78;94175.56;4963745;28;7186;-55
2023/12/23 01:40:12;;;;;;;;;;;;;;;25.90;38.37;94174.59;4973929;28;7223;-55
2023/12/23 01:42:46;;;;;;;;;;;;;;;25.88;37.84;94180.59;4972523;28;7468;-55
2023/12/23 01:45:15;;;;;;;;;;;;;;;25.88;37.90;94188.88;4964493;28;7440;-55
2023/12/23 01:47:54;;;;;;;;;;;;;;;25.88;37.85;94188.88;4962227;28;7624;-55
2023/12/23 01:50:22;;;;;;;;;;;;;;;25.91;38.07;94181.59;4965105;28;6952;-55
2023/12/23 01:52:55;;;;;;;;;;;;;;;25.90;38.03;94185.63;4968672;28;9183;-55
2023/12/23 01:55:26;;;;;;;;;;;;;;;25.90;38.33;94183.59;4970986;28;7299;-55
2023/12/23 01:57:54;;;;;;;;;;;;;;;25.90;37.50;94182.88;5037749;28;7041;-55
2023/12/23 02:00:33;;;;;;;;;;;;;;;25.91;38.09;94178.84;5047248;28;7323;-55
2023/12/23 02:03:08;;;;;;;;;;;;;;;25.92;38.35;94208.66;5021790;28;10094;-55
2023/12/23 02:05:40;;;;;;;;;;;;;;;25.91;37.50;94220.91;5042149;28;7894;-64
2023/12/23 02:08:14;;;;;;;;;;;;;;;25.91;38.07;94212.66;5023551;28;7259;-63
2023/12/23 02:10:42;;;;;;;;;;;;;;;25.89;37.56;94212.41;5014744;28;7002;-63
2023/12/23 02:13:40;;;;;;;;;;;;;;;25.88;37.76;94227.44;5027227;28;7634;-63
2023/12/23 02:16:21;;;;;;;;;;;;;;;25.88;37.41;94226.72;5027411;28;7238;-63
2023/12/23 02:18:50;;;;;;;;;;;;;;;25.87;38.06;94225.97;5031361;28;8754;-63
2023/12/23 02:21:24;;;;;;;;;;;;;;;25.88;37.92;94216.44;5028945;28;9579;-63
2023/12/23 02:24:05;;;;;;;;;;;;;;;25.86;37.92;94221.72;5022159;28;7266;-62
2023/12/23 02:26:36;;;;;;;;;;;;;;;25.87;37.42;94225.22;5015655;28;7026;-63
2023/12/23 02:29:03;;;;;;;;;;;;;;;25.85;38.15;94223.00;5024607;28;6859;-63
2023/12/23 02:31:32;;;;;;;;;;;;;;;25.90;38.02;94224.91;5024895;28;7566;-63
2023/12/23 02:33:59;;;;;;;;;;;;;;;25.89;37.84;94222.69;5013988;28;6976;-63
2023/12/23 02:36:26;;;;;;;;;;;;;;;25.88;37.79;94230.19;5023034;28;7647;-63
2023/12/23 02:38:54;;;;;;;;;;;;;;;25.86;37.37;94221.00;5029734;28;7636;-63
2023/12/23 02:41:25;;;;;;;;;;;;;;;25.91;37.40;94211.91;5020445;28;7074;-63
2023/12/23 02:44:01;;;;;;;;;;;;;;;25.89;37.48;94223.44;5031555;28;7463;-63
2023/12/23 02:46:29;;;;;;;;;;;;;;;25.89;37.17;94223.44;5032886;28;6976;-62
2023/12/23 02:49:01;;;;;;;;;;;;;;;25.91;37.95;94225.66;5010778;28;9085;-63
2023/12/23 02:51:27;;;;;;;;;;;;;;;25.89;37.63;94228.94;5010710;28;7360;-63
2023/12/23 02:53:54;;;;;;;;;;;;;;;25.89;37.41;94228.19;5030014;28;7056;-62
2023/12/23 02:56:22;;;;;;;;;;;;;;;25.86;37.75;94218.94;5028315;28;7292;-63
2023/12/23 02:58:48;;;;;;;;;;;;;;;25.89;37.27;94228.94;5030186;28;7022;-63
2023/12/23 03:01:14;;;;;;;;;;;;;;;25.90;37.84;94240.72;5013186;28;7386;-63
2023/12/23 03:03:44;;;;;;;;;;;;;;;25.91;37.36;94231.94;5028906;28;8104;-62
2023/12/23 03:06:13;;;;;;;;;;;;;;;25.90;37.93;94238.69;5034418;28;7199;-63
2023/12/23 03:08:42;;;;;;;;;;;;;;;25.92;37.61;94243.72;5024838;28;7004;-63
2023/12/23 03:11:21;;;;;;;;;;;;;;;25.90;37.80;94255.22;5021045;28;8146;-63
2023/12/23 03:14:24;;;;;;;;;;;;;;;25.88;37.20;94241.22;5027934;28;8797;-62
2023/12/23 03:17:11;;;;;;;;;;;;;;;25.89;37.31;94239.97;4991378;28;7186;-61
2023/12/23 03:19:47;;;;;;;;;;;;;;;25.88;37.36;94243.25;4978635;28;7680;-61
2023/12/23 03:22:14;;;;;;;;;;;;;;;25.89;37.42;94228.19;4989717;28;7601;-61
2023/12/23 03:24:42;;;;;;;;;;;;;;;25.89;37.80;94231.72;4969318;28;7152;-61
2023/12/23 03:27:23;;;;;;;;;;;;;;;25.89;37.04;94219.94;4973964;28;9074;-61
2023/12/23 03:29:51;;;;;;;;;;;;;;;25.91;37.80;94220.16;4981792;28;7991;-61
2023/12/23 03:32:17;;;;;;;;;;;;;;;25.90;37.34;94224.19;4977929;28;7175;-61
2023/12/23 03:34:45;;;;;;;;;;;;;;;25.89;37.95;94225.44;4974144;28;9449;-61
2023/12/23 03:37:13;;;;;;;;;;;;;;;25.89;37.23;94209.66;4970679;28;6982;-61
2023/12/23 03:40:13;;;;;;;;;;;;;;;25.89;37.83;94206.16;4989540;28;6865;-61
2023/12/23 03:42:48;;;;;;;;;;;;;;;25.81;37.56;94203.25;4899099;29;8154;-61
2023/12/23 03:45:28;;;;;;;;;;;;;;;25.86;37.62;94207.22;4899326;29;7229;-61
2023/12/23 03:47:54;;;;;;;;;;;;;;;25.86;37.64;94213.44;4895861;29;6983;-61
2023/12/23 03:50:57;;;;;;;;;;;;;;;25.85;37.25;94203.69;4924025;28;7086;-61
2023/12/23 03:53:33;;;;;;;;;;;;;;;25.82;37.07;94210.22;4940245;28;7230;-61
2023/12/23 03:56:37;;;;;;;;;;;;;;;25.83;37.30;94203.47;4926780;28;7644;-61
2023/12/23 03:59:05;;;;;;;;;;;;;;;25.81;37.08;94183.97;4937426;29;7235;-61
2023/12/23 04:01:43;;;;;;;;;;;;;;;25.83;37.67;94186.94;4937406;29;7699;-61
2023/12/23 04:04:08;;;;;;;;;;;;;;;25.79;37.11;94194.75;4932144;28;7929;-61
2023/12/23 04:06:40;;;;;;;;;;;;;;;25.74;37.45;94192.78;4937227;28;7341;-61
2023/12/23 04:09:51;;;;;;;;;;;;;;;25.83;37.86;94208.97;4940189;28;7250;-61
2023/12/23 04:12:37;;;;;;;;;;;;;;;25.79;37.61;94205.03;4867922;29;9103;-61
2023/12/23 04:15:07;;;;;;;;;;;;;;;25.81;37.37;94202.50;4888087;29;9037;-61
2023/12/23 04:17:34;;;;;;;;;;;;;;;25.80;37.41;94207.25;4888818;29;8460;-61
2023/12/23 04:20:30;;;;;;;;;;;;;;;25.80;37.62;94214.75;4915868;29;7261;-61
2023/12/23 04:22:59;;;;;;;;;;;;;;;25.81;37.50;94219.78;4860780;29;9782;-61
2023/12/23 04:25:28;;;;;;;;;;;;;;;25.76;37.08;94228.84;4861695;29;7225;-61
2023/12/23 04:28:24;;;;;;;;;;;;;;;25.76;37.23;94234.34;4858591;29;7192;-61
2023/12/23 04:30:56;;;;;;;;;;;;;;;25.78;37.14;94225.56;4864112;29;9642;-61
2023/12/23 04:33:24;;;;;;;;;;;;;;;25.80;37.76;94234.06;4863691;29;7891;-60
2023/12/23 04:35:54;;;;;;;;;;;;;;;25.85;37.47;94236.75;4863906;29;8301;-60
2023/12/23 04:38:22;;;;;;;;;;;;;;;25.84;37.91;94243.53;4879526;29;6985;-61
2023/12/23 04:40:51;;;;;;;;;;;;;;;25.83;37.21;94249.56;4863473;29;6987;-61
2023/12/23 04:43:31;;;;;;;;;;;;;;;25.77;37.65;94244.13;4879808;29;8641;-61
2023/12/23 04:46:02;;;;;;;;;;;;;;;25.80;37.37;94236.81;4879944;29;7221;-61
2023/12/23 04:48:30;;;;;;;;;;;;;;;25.77;37.48;94233.09;4897380;28;7229;-61
2023/12/23 04:50:58;;;;;;;;;;;;;;;25.76;37.65;94233.59;4938741;28;9078;-61
2023/12/23 04:53:49;;;;;;;;;;;;;;;25.79;37.31;94240.84;4948794;28;7228;-61
2023/12/23 04:56:22;;;;;;;;;;;;;;;25.74;37.16;94249.88;4951937;28;10408;-61
2023/12/23 04:58:49;;;;;;;;;;;;;;;25.72;37.15;94250.41;4950755;28;9475;-61
2023/12/23 05:01:17;;;;;;;;;;;;;;;25.66;37.55;94233.19;5015890;28;8182;-61
2023/12/23 05:03:46;;;;;;;;;;;;;;;25.71;37.82;94226.16;5015933;28;7095;-61
2023/12/23 05:06:13;;;;;;;;;;;;;;;25.67;37.81;94212.63;5032119;28;7062;-61
2023/12/23 05:08:39;;;;;;;;;;;;;;;25.72;37.43;94220.13;5024390;28;6991;-61
2023/12/23 05:11:19;;;;;;;;;;;;;;;25.72;37.88;94211.84;5034037;28;7218;-61
2023/12/23 05:13:47;;;;;;;;;;;;;;;25.76;37.16;94226.06;5034220;28;6968;-61
2023/12/23 05:16:15;;;;;;;;;;;;;;;25.76;37.57;94215.06;5024055;28;7142;-61
2023/12/23 05:18:41;;;;;;;;;;;;;;;25.75;37.65;94212.84;5016592;28;7165;-61
2023/12/23 05:21:12;;;;;;;;;;;;;;;25.77;37.66;94205.53;5013090;28;6979;-61
2023/12/23 05:23:40;;;;;;;;;;;;;;;25.78;37.33;94198.00;5019321;28;9129;-61
2023/12/23 05:26:06;;;;;;;;;;;;;;;25.80;37.33;94207.25;5028749;28;6981;-61
2023/12/23 05:28:34;;;;;;;;;;;;;;;25.79;37.15;94205.78;5034046;28;7134;-61
2023/12/23 05:31:00;;;;;;;;;;;;;;;25.77;37.50;94200.03;5032990;28;6974;-61
2023/12/23 05:33:28;;;;;;;;;;;;;;;25.81;37.38;94203.25;5036053;28;7099;-61
2023/12/23 05:35:55;;;;;;;;;;;;;;;25.77;36.93;94186.25;5029510;28;9139;-55
2023/12/23 05:38:22;;;;;;;;;;;;;;;25.79;37.37;94169.97;5037028;28;7217;-54
2023/12/23 05:40:48;;;;;;;;;;;;;;;25.79;37.03;94196.75;5027998;28;7305;-55
2023/12/23 05:43:14;;;;;;;;;;;;;;;25.78;37.80;94189.75;5026131;28;7237;-55
2023/12/23 05:45:42;;;;;;;;;;;;;;;25.76;37.82;94198.53;5025489;28;7894;-54
2023/12/23 05:48:11;;;;;;;;;;;;;;;25.80;37.13;94198.22;5030966;28;7143;-55
2023/12/23 05:50:37;;;;;;;;;;;;;;;25.78;37.71;94198.00;5043387;28;9205;-55
2023/12/23 05:53:04;;;;;;;;;;;;;;;25.77;37.60;94211.06;5017961;28;7096;-54
2023/12/23 05:55:40;;;;;;;;;;;;;;;25.75;37.05;94208.03;5029997;28;7184;-55
2023/12/23 05:58:32;;;;;;;;;;;;;;;25.73;37.16;94218.84;5014009;28;7195;-55
2023/12/23 06:01:11;;;;;;;;;;;;;;;25.74;37.33;94234.13;5018021;28;7018;-55
2023/12/23 06:03:39;;;;;;;;;;;;;;;25.76;37.73;94242.59;5039744;28;7260;-55
2023/12/23 06:06:24;;;;;;;;;;;;;;;25.75;37.62;94240.38;5020245;28;7133;-55
2023/12/23 06:09:00;;;;;;;;;;;;;;;25.76;37.27;94239.84;5047554;28;7436;-56
2023/12/23 06:11:28;;;;;;;;;;;;;;;25.75;37.43;94243.84;5023221;28;7350;-55
2023/12/23 06:13:56;;;;;;;;;;;;;;;25.77;36.98;94237.84;5015310;28;9512;-55
2023/12/23 06:16:23;;;;;;;;;;;;;;;25.75;36.89;94219.06;5013724;28;7243;-55
2023/12/23 06:18:57;;;;;;;;;;;;;;;25.75;37.59;94221.09;5031787;28;7459;-55
2023/12/23 06:21:34;;;;;;;;;;;;;;;25.78;36.90;94236.56;5021891;28;7161;-55
2023/12/23 06:24:07;;;;;;;;;;;;;;;25.73;37.22;94243.63;5023089;28;7032;-55
2023/12/23 06:26:35;;;;;;;;;;;;;;;25.70;37.51;94268.72;5028390;28;7028;-55
2023/12/23 06:29:01;;;;;;;;;;;;;;;25.67;37.57;94264.97;5020428;28;8839;-55
2023/12/23 06:31:34;;;;;;;;;;;;;;;25.68;37.06;94265.72;5028661;28;7202;-55
2023/12/23 06:34:04;;;;;;;;;;;;;;;25.63;37.67;94264.50;5024588;28;6865;-55
2023/12/23 06:36:40;;;;;;;;;;;;;;;25.72;37.11;94275.22;5027886;28;6976;-55
2023/12/23 06:39:15;;;;;;;;;;;;;;;25.76;36.97;94280.41;5028464;28;7435;-55
2023/12/23 06:41:41;;;;;;;;;;;;;;;25.77;37.32;94270.91;5029590;28;7011;-55
2023/12/23 06:44:21;;;;;;;;;;;;;;;25.79;36.99;94273.91;5030472;28;8682;-55
2023/12/23 06:46:51;;;;;;;;;;;;;;;25.77;37.73;94265.41;5030146;28;7296;-60
2023/12/23 06:49:33;;;;;;;;;;;;;;;25.78;36.50;94264.88;5022181;28;9045;-60
2023/12/23 06:52:20;;;;;;;;;;;;;;;25.76;37.08;94261.13;5016343;28;9186;-60
2023/12/23 06:54:46;;;;;;;;;;;;;;;25.71;36.97;94253.69;5041849;28;7066;-60
2023/12/23 06:57:12;;;;;;;;;;;;;;;25.75;37.60;94262.41;5026786;28;7436;-60
2023/12/23 06:59:44;;;;;;;;;;;;;;;25.76;36.84;94241.84;5041333;28;7242;-60
2023/12/23 07:02:15;;;;;;;;;;;;;;;25.75;37.26;94235.59;5011159;28;7290;-60
2023/12/23 07:04:55;;;;;;;;;;;;;;;25.76;36.95;94234.34;5029066;28;7040;-60
2023/12/23 07:07:52;;;;;;;;;;;;;;;25.80;37.54;94242.31;5027327;28;7246;-60
2023/12/23 07:10:20;;;;;;;;;;;;;;;25.79;36.85;94249.84;4950211;28;7224;-60
2023/12/23 07:12:46;;;;;;;;;;;;;;;25.75;37.24;94249.38;4964702;28;7834;-60
2023/12/23 07:15:17;;;;;;;;;;;;;;;25.72;37.62;94241.41;4964682;28;8876;-60
2023/12/23 07:17:44;;;;;;;;;;;;;;;25.65;37.63;94231.69;4946458;28;7225;-60
2023/12/23 07:20:14;;;;;;;;;;;;;;;25.64;37.96;94240.47;4959705;28;9176;-60
2023/12/23 07:22:43;;;;;;;;;;;;;;;25.62;37.43;94238.22;4967332;28;8925;-60
2023/12/23 07:25:19;;;;;;;;;;;;;;;25.58;38.41;94237.75;4942153;28;8502;-60
2023/12/23 07:27:46;;;;;;;;;;;;;;;25.61;37.55;94253.25;4948665;28;7355;-60
2023/12/23 07:30:32;;;;;;;;;;;;;;;25.58;38.24;94237.03;4964512;28;7281;-60
2023/12/23 07:33:19;;;;;;;;;;;;;;;25.57;37.52;94241.78;4967772;28;7540;-61
2023/12/23 07:35:57;;;;;;;;;;;;;;;25.57;37.92;94250.06;4966185;28;7191;-60
2023/12/23 07:38:36;;;;;;;;;;;;;;;25.57;38.10;94241.78;4961389;28;8794;-60
2023/12/23 07:41:12;;;;;;;;;;;;;;;25.62;37.79;94246.47;4954023;28;7203;-60
2023/12/23 07:44:11;;;;;;;;;;;;;;;25.63;37.89;94263.75;4952635;28;7048;-60
2023/12/23 07:46:58;;;;;;;;;;;;;;;25.60;38.55;94268.28;4909019;29;8184;-60
2023/12/23 07:49:56;;;;;;;;;;;;;;;25.63;38.70;94261.00;4945713;28;9036;-60
2023/12/23 07:52:35;;;;;;;;;;;;;;;25.68;39.52;94243.69;4941339;29;9439;-60
2023/12/23 07:55:10;;;;;;;;;;;;;;;25.71;39.17;94254.41;4940395;28;7304;-60
2023/12/23 07:57:47;;;;;;;;;;;;;;;25.69;39.74;94256.94;4936409;29;9067;-56
2023/12/23 08:00:37;;;;;;;;;;;;;;;25.68;38.50;94265.72;4936324;29;8362;-56
2023/12/23 08:03:18;;;;;;;;;;;;;;;25.64;38.76;94273.53;4948006;29;9131;-56
2023/12/23 08:05:44;;;;;;;;;;;;;;;25.62;40.14;94263.00;4939906;29;7726;-56
2023/12/23 08:08:13;;;;;;;;;;;;;;;25.58;39.18;94261.81;4949494;28;6969;-56
2023/12/23 08:10:43;;;;;;;;;;;;;;;25.62;39.43;94265.75;4953248;28;8006;-56
2023/12/23 08:13:23;;;;;;;;;;;;;;;25.59;39.34;94283.31;4955414;28;7116;-56
2023/12/23 08:15:56;;;;;;;;;;;;;;;25.59;39.84;94272.31;4938799;28;7626;-56
2023/12/23 08:18:23;;;;;;;;;;;;;;;25.55;39.98;94258.09;4936398;29;7000;-56
2023/12/23 08:20:51;;;;;;;;;;;;;;;25.59;39.92;94257.78;4935909;28;9076;-56
2023/12/23 08:23:26;;;;;;;;;;;;;;;25.63;39.11;94270.03;5016284;28;9692;-56
2023/12/23 08:25:58;;;;;;;;;;;;;;;25.65;39.38;94275.75;5041495;28;7189;-56
2023/12/23 08:28:30;;;;;;;;;;;;;;;25.64;39.44;94279.03;5035349;28;9061;-56
2023/12/23 08:31:13;;;;;;;;;;;;;;;25.67;39.23;94276.00;5021334;28;7143;-56
2023/12/23 08:33:41;;;;;;;;;;;;;;;25.71;39.69;94273.69;5023765;28;9335;-55
2023/12/23 08:36:07;;;;;;;;;;;;;;;25.72;39.61;94275.22;5036995;28;6954;-56
2023/12/23 08:38:57;;;;;;;;;;;;;;;25.66;39.24;94277.28;5024983;28;8604;-56
2023/12/23 08:41:40;;;;;;;;;;;;;;;25.66;39.59;94271.75;5046790;28;9249;-56
2023/12/23 08:44:16;;;;;;;;;;;;;;;25.65;39.25;94248.22;5033013;28;9128;-56
2023/12/23 08:46:56;;;;;;;;;;;;;;;25.65;39.97;94253.72;5035430;28;7294;-56
2023/12/23 08:49:23;;;;;;;;;;;;;;;25.62;39.94;94254.75;5036511;28;7360;-56
2023/12/23 08:51:56;;;;;;;;;;;;;;;25.66;39.44;94258.00;5018332;28;7341;-56
2023/12/23 08:54:37;;;;;;;;;;;;;;;25.65;39.14;94252.97;5021336;28;7094;-55
2023/12/23 08:57:05;;;;;;;;;;;;;;;25.63;39.47;94263.75;5039256;28;7938;-56
2023/12/23 08:59:33;;;;;;;;;;;;;;;25.63;39.65;94267.25;5023332;28;7376;-56
2023/12/23 09:02:03;;;;;;;;;;;;;;;25.60;39.98;94278.56;5022584;28;7059;-56
2023/12/23 09:04:31;;;;;;;;;;;;;;;25.62;39.45;94279.53;5051167;28;9150;-56
2023/12/23 09:07:00;;;;;;;;;;;;;;;25.67;39.99;94273.25;5037148;28;7509;-63
2023/12/23 09:09:41;;;;;;;;;;;;;;;25.70;39.49;94266.72;5022975;28;6988;-63
2023/12/23 09:12:09;;;;;;;;;;;;;;;25.71;39.75;94267.47;5013964;28;6941;-63
2023/12/23 09:14:35;;;;;;;;;;;;;;;25.75;39.77;94273.44;5028198;28;9115;-62
2023/12/23 09:17:01;;;;;;;;;;;;;;;25.78;39.15;94286.91;5017161;28;7060;-63
2023/12/23 09:19:33;;;;;;;;;;;;;;;25.81;39.31;94296.16;5018827;28;7220;-62
2023/12/23 09:22:01;;;;;;;;;;;;;;;25.82;39.49;94289.38;5035753;28;7249;-63
2023/12/23 09:25:00;;;;;;;;;;;;;;;25.76;39.62;94300.47;5015478;28;8359;-63
2023/12/23 09:27:39;;;;;;;;;;;;;;;25.75;39.62;94287.94;4993323;28;8576;-62
2023/12/23 09:30:07;;;;;;;;;;;;;;;25.72;39.28;94275.22;5006497;28;8844;-62
2023/12/23 09:32:42;;;;;;;;;;;;;;;25.76;39.15;94281.19;4984918;28;7074;-62
2023/12/23 09:35:16;;;;;;;;;;;;;;;25.77;37.99;94290.19;5004401;28;7061;-63
2023/12/23 09:37:44;;;;;;;;;;;;;;;25.73;38.29;94287.69;4982830;28;7225;-63
2023/12/23 09:40:13;;;;;;;;;;;;;;;25.67;37.85;94289.75;5007378;28;6992;-61
2023/12/23 09:42:40;;;;;;;;;;;;;;;25.69;37.92;94281.72;5008316;28;6919;-61
2023/12/23 09:45:12;;;;;;;;;;;;;;;25.70;37.95;94280.50;5004717;28;6990;-61
2023/12/23 09:48:00;;;;;;;;;;;;;;;25.66;38.43;94293.78;5002190;28;7007;-61
2023/12/23 09:50:37;;;;;;;;;;;;;;;25.72;38.15;94288.22;4986258;28;7002;-61
2023/12/23 09:53:09;;;;;;;;;;;;;;;25.75;38.28;94289.97;5010445;28;7011;-60
2023/12/23 09:55:39;;;;;;;;;;;;;;;25.75;37.90;94296.19;4988916;28;9697;-60
2023/12/23 09:58:20;;;;;;;;;;;;;;;25.72;37.92;94283.47;5011276;28;7146;-60
2023/12/23 10:00:47;;;;;;;;;;;;;;;25.73;38.52;94293.22;4985210;28;7169;-60
2023/12/23 10:03:16;;;;;;;;;;;;;;;25.74;37.95;94280.94;5009129;28;8917;-60
2023/12/23 10:05:47;;;;;;;;;;;;;;;25.75;37.94;94279.66;5026833;28;7278;-60
2023/12/23 10:08:13;;;;;;;;;;;;;;;25.78;38.00;94286.91;5027274;28;7291;-60
2023/12/23 10:10:42;;;;;;;;;;;;;;;25.77;38.21;94271.66;5026387;28;7137;-60
2023/12/23 10:13:09;;;;;;;;;;;;;;;25.79;38.10;94282.91;5028346;28;7030;-60
2023/12/23 10:15:41;;;;;;;;;;;;;;;25.84;38.49;94271.06;5018565;28;6969;-61
2023/12/23 10:18:11;;;;;;;;;;;;;;;25.80;37.87;94278.88;5017482;28;6986;-62
2023/12/23 10:20:38;;;;;;;;;;;;;;;25.82;38.15;94281.13;5028987;28;7075;-62
2023/12/23 10:23:07;;;;;;;;;;;;;;;25.87;38.32;94281.06;5020275;28;7235;-62
2023/12/23 10:25:40;;;;;;;;;;;;;;;25.88;38.48;94277.03;5032562;28;7790;-62
2023/12/23 10:28:11;;;;;;;;;;;;;;;25.89;37.92;94275.78;5042197;28;7212;-61
2023/12/23 10:30:49;;;;;;;;;;;;;;;25.83;38.14;94274.34;5026568;28;8000;-61
2023/12/23 10:33:22;;;;;;;;;;;;;;;25.81;38.68;94266.63;5029050;28;6990;-61
2023/12/23 10:35:58;;;;;;;;;;;;;;;25.78;38.28;94262.13;5034658;28;8983;-61
2023/12/23 10:38:27;;;;;;;;;;;;;;;25.83;38.70;94261.34;5020945;28;7136;-62
2023/12/23 10:41:45;;;;;;;;;;;;;;;25.80;38.42;94276.13;5031194;28;9352;-62
2023/12/23 10:44:12;;;;;;;;;;;;;;;25.79;38.77;94269.13;4951502;28;7076;-60
2023/12/23 10:46:50;;;;;;;;;;;;;;;25.77;38.82;94252.38;4968960;28;9200;-61
2023/12/23 10:49:30;;;;;;;;;;;;;;;25.77;39.20;94288.19;4965799;28;7475;-61
2023/12/23 10:51:59;;;;;;;;;;;;;;;25.77;38.96;94277.16;4955805;28;7218;-61
2023/12/23 10:54:42;;;;;;;;;;;;;;;25.77;39.08;94288.19;4967770;28;6992;-61
2023/12/23 10:57:27;;;;;;;;;;;;;;;25.80;39.56;94286.41;4968817;28;7351;-62
2023/12/23 10:59:56;;;;;;;;;;;;;;;25.83;38.37;94283.38;4956157;28;7214;-62
2023/12/23 11:02:35;;;;;;;;;;;;;;;25.82;38.89;94284.63;4939117;28;7276;-61
2023/12/23 11:05:09;;;;;;;;;;;;;;;25.85;39.05;94289.13;4964765;28;7031;-62
2023/12/23 11:07:49;;;;;;;;;;;;;;;25.88;38.63;94281.84;4971186;28;7085;-61
2023/12/23 11:10:19;;;;;;;;;;;;;;;25.87;38.23;94288.59;4963735;28;7238;-61
2023/12/23 11:12:48;;;;;;;;;;;;;;;25.89;37.95;94295.09;4969218;28;7239;-61
2023/12/23 11:15:20;;;;;;;;;;;;;;;25.93;38.06;94284.53;4960581;28;9202;-61
2023/12/23 11:17:54;;;;;;;;;;;;;;;25.93;38.65;94283.78;4966116;28;7151;-61
2023/12/23 11:20:35;;;;;;;;;;;;;;;25.94;38.47;94272.25;4999365;28;7159;-61
2023/12/23 11:23:29;;;;;;;;;;;;;;;25.92;38.53;94280.28;5020655;28;7326;-61
2023/12/23 11:25:55;;;;;;;;;;;;;;;25.87;38.66;94266.56;5021374;28;9972;-56
2023/12/23 11:28:27;;;;;;;;;;;;;;;25.86;39.21;94274.06;5022245;28;9089;-56
2023/12/23 11:30:59;;;;;;;;;;;;;;;25.91;39.01;94275.28;5014997;28;7281;-56
2023/12/23 11:33:32;;;;;;;;;;;;;;;25.86;39.01;94257.53;5025214;28;9445;-55
2023/12/23 11:36:03;;;;;;;;;;;;;;;25.91;38.53;94259.50;5030485;28;8806;-56
2023/12/23 11:38:54;;;;;;;;;;;;;;;25.91;38.70;94264.25;5019601;28;9710;-56
2023/12/23 11:41:21;;;;;;;;;;;;;;;25.92;39.38;94260.25;5024496;28;9364;-56
2023/12/23 11:43:54;;;;;;;;;;;;;;;25.91;39.04;94253.97;5035422;28;7674;-55
2023/12/23 11:46:24;;;;;;;;;;;;;;;25.91;39.60;94255.97;5026676;28;7164;-56
2023/12/23 11:48:50;;;;;;;;;;;;;;;25.93;39.39;94240.44;5043207;28;7236;-56
2023/12/23 11:51:19;;;;;;;;;;;;;;;25.95;39.34;94251.69;5037346;28;7728;-55
2023/12/23 11:53:46;;;;;;;;;;;;;;;25.96;39.53;94250.44;5029017;28;7385;-56
2023/12/23 11:56:19;;;;;;;;;;;;;;;25.98;39.49;94252.66;5039114;28;9510;-55
2023/12/23 11:59:05;;;;;;;;;;;;;;;25.98;39.18;94242.41;5026898;28;7054;-56
2023/12/23 12:01:48;;;;;;;;;;;;;;;25.94;38.96;94236.44;5022650;28;7402;-56
2023/12/23 12:04:14;;;;;;;;;;;;;;;26.01;38.83;94246.13;5027569;28;7228;-55
2023/12/23 12:06:48;;;;;;;;;;;;;;;26.11;38.34;94250.81;5019413;28;7191;-55
2023/12/23 12:09:20;;;;;;;;;;;;;;;26.22;38.85;94260.22;5044456;28;7247;-55
2023/12/23 12:11:59;;;;;;;;;;;;;;;26.23;38.51;94250.69;5026891;28;9527;-55
2023/12/23 12:14:44;;;;;;;;;;;;;;;26.20;38.73;94260.72;5028747;28;9423;-55
2023/12/23 12:17:38;;;;;;;;;;;;;;;26.23;39.04;94250.69;5028839;28;7360;-55
2023/12/23 12:20:05;;;;;;;;;;;;;;;26.23;39.52;94261.72;5025055;28;7268;-56
2023/12/23 12:23:06;;;;;;;;;;;;;;;26.20;38.95;94252.47;5028530;28;7714;-56
2023/12/23 12:25:37;;;;;;;;;;;;;;;26.21;39.20;94247.69;5032947;28;7250;-56
2023/12/23 12:28:31;;;;;;;;;;;;;;;26.20;38.95;94224.91;5034851;28;7078;-56
2023/12/23 12:31:09;;;;;;;;;;;;;;;26.14;39.50;94233.22;4956029;28;7081;-56
2023/12/23 12:33:42;;;;;;;;;;;;;;;26.14;39.03;94244.25;4962740;28;7227;-56
2023/12/23 12:36:13;;;;;;;;;;;;;;;26.12;39.04;94238.50;4970983;28;9275;-60
2023/12/23 12:38:42;;;;;;;;;;;;;;;26.10;39.05;94238.28;4965093;28;7243;-61
2023/12/23 12:41:14;;;;;;;;;;;;;;;26.10;39.04;94241.03;4968226;28;7281;-60
2023/12/23 12:43:45;;;;;;;;;;;;;;;26.09;39.68;94236.03;4951868;28;7163;-61
2023/12/23 12:46:19;;;;;;;;;;;;;;;26.08;39.31;94235.28;4974154;28;7729;-61
2023/12/23 12:48:48;;;;;;;;;;;;;;;26.08;39.39;94227.03;4957183;28;7097;-61
2023/12/23 12:51:25;;;;;;;;;;;;;;;26.09;39.41;94225.78;4967478;28;7406;-60
2023/12/23 12:54:07;;;;;;;;;;;;;;;26.08;38.65;94224.25;4966418;28;6969;-60
2023/12/23 12:56:47;;;;;;;;;;;;;;;26.13;39.07;94231.72;4957237;28;7244;-61
2023/12/23 12:59:38;;;;;;;;;;;;;;;26.20;39.19;94218.63;4948975;28;9110;-61
2023/12/23 13:02:15;;;;;;;;;;;;;;;26.21;39.41;94228.41;4949007;28;9109;-61
2023/12/23 13:04:45;;;;;;;;;;;;;;;26.24;39.18;94219.06;4960085;28;7506;-61
2023/12/23 13:07:13;;;;;;;;;;;;;;;26.25;39.17;94228.84;4976372;28;8896;-61
2023/12/23 13:09:40;;;;;;;;;;;;;;;26.22;38.52;94216.09;5022551;28;9378;-61
2023/12/23 13:12:08;;;;;;;;;;;;;;;26.22;38.78;94225.13;5019014;28;6998;-61
2023/12/23 13:14:40;;;;;;;;;;;;;;;26.15;39.19;94223.69;5015432;28;7313;-61
2023/12/23 13:17:17;;;;;;;;;;;;;;;26.10;39.48;94232.75;5029411;28;7233;-61
2023/12/23 13:19:44;;;;;;;;;;;;;;;26.12;38.92;94235.00;5031797;28;7020;-61
2023/12/23 13:22:19;;;;;;;;;;;;;;;26.10;38.92;94240.28;5026519;28;8119;-61
2023/12/23 13:25:01;;;;;;;;;;;;;;;26.10;38.85;94238.28;5020649;28;6991;-61
2023/12/23 13:27:32;;;;;;;;;;;;;;;26.13;39.87;94253.03;5020637;28;7560;-61
2023/12/23 13:30:14;;;;;;;;;;;;;;;26.13;39.38;94253.03;5028365;28;7212;-61
2023/12/23 13:32:40;;;;;;;;;;;;;;;26.13;39.43;94256.53;5025839;28;7334;-61